Time;durP1;ratioP1;P1;durP2;ratioP2;P2;SDS_P1;SDS_P2;PMS_P1;PMS_P2;Temp;Humidity;BMP_temperature;BMP_pressure;BME280_temperature;BME280_humidity;BME280_pressure;Samples;Min_cycle;Max_cycle;Signal;HPM_P1;HPM_P2
2020/12/03 00:00:48;;;;;;;49.97;25.25;;;;;;;1.63;88.67;100061.28;5081315;28;20040;-77
2020/12/03 00:03:23;;;;;;;52.55;26.67;;;;;;;1.59;88.95;100063.06;5084748;28;20407;-77
2020/12/03 00:05:57;;;;;;;52.53;26.83;;;;;;;1.61;88.59;100058.69;5090947;28;20048;-81
2020/12/03 00:08:24;;;;;;;53.92;26.90;;;;;;;1.64;89.25;100065.59;5093928;28;20108;-79
2020/12/03 00:10:51;;;;;;;51.75;27.33;;;;;;;1.62;88.83;100054.31;5105428;28;20052;-77
2020/12/03 00:13:25;;;;;;;56.95;28.40;;;;;;;1.60;88.71;100050.88;5073839;28;20052;-76
2020/12/03 00:15:56;;;;;;;49.42;25.75;;;;;;;1.56;89.04;100050.09;5089996;28;20067;-78
2020/12/03 00:18:28;;;;;;;51.10;25.83;;;;;;;1.51;88.77;100038.84;5081885;28;20142;-77
2020/12/03 00:20:55;;;;;;;49.65;26.15;;;;;;;1.54;89.15;100043.16;5086690;28;20083;-77
2020/12/03 00:23:22;;;;;;;54.83;28.15;;;;;;;1.59;88.85;100047.41;5087230;28;20052;-80
2020/12/03 00:25:52;;;;;;;53.97;27.17;;;;;;;1.63;88.97;100038.66;5085814;28;20044;-78
2020/12/03 00:28:18;;;;;;;52.72;26.50;;;;;;;1.60;88.15;100038.69;5088259;28;20040;-78
2020/12/03 00:30:48;;;;;;;51.45;25.95;;;;;;;1.58;88.62;100037.00;5091885;28;20060;-79
2020/12/03 00:33:17;;;;;;;56.15;28.20;;;;;;;1.62;88.47;100041.28;5090393;28;20127;-76
2020/12/03 00:35:48;;;;;;;52.97;26.95;;;;;;;1.56;88.62;100031.81;5081384;28;20860;-77
2020/12/03 00:38:17;;;;;;;55.83;26.65;;;;;;;1.57;88.29;100028.31;5085919;28;20325;-78
2020/12/03 00:40:46;;;;;;;56.20;27.38;;;;;;;1.54;88.74;100020.53;5084778;28;20105;-78
2020/12/03 00:43:13;;;;;;;54.58;27.55;;;;;;;1.56;89.09;100026.59;5081434;28;20059;-77
2020/12/03 00:45:39;;;;;;;54.58;28.42;;;;;;;1.55;88.92;100024.88;5079563;28;20046;-77
2020/12/03 00:48:05;;;;;;;53.63;27.45;;;;;;;1.52;89.33;100011.88;5088517;28;20059;-78
2020/12/03 00:50:32;;;;;;;55.75;27.40;;;;;;;1.53;89.30;100012.75;5082446;28;20130;-78
2020/12/03 00:52:58;;;;;;;54.17;26.35;;;;;;;1.53;89.36;100000.56;5086270;28;20048;-77
2020/12/03 00:55:25;;;;;;;57.90;28.23;;;;;;;1.52;89.15;100004.03;5079796;28;20051;-78
2020/12/03 00:57:51;;;;;;;56.50;26.60;;;;;;;1.51;89.43;99996.25;5086050;28;20059;-77
2020/12/03 01:00:20;;;;;;;51.33;24.88;;;;;;;1.52;89.05;99992.75;5079082;28;20093;-79
2020/12/03 01:02:50;;;;;;;52.35;25.95;;;;;;;1.52;88.66;99998.84;5077945;28;20044;-79
2020/12/03 01:05:17;;;;;;;50.00;24.65;;;;;;;1.52;88.29;99983.16;5080940;28;20055;-79
2020/12/03 01:07:45;;;;;;;44.75;24.25;;;;;;;1.48;88.50;99989.31;5086941;28;20051;-79
2020/12/03 01:10:18;;;;;;;46.80;23.15;;;;;;;1.48;88.16;99984.09;5085093;28;20113;-77
2020/12/03 01:12:46;;;;;;;47.55;24.10;;;;;;;1.47;88.72;99971.94;5089475;28;20044;-78
2020/12/03 01:15:13;;;;;;;46.75;24.33;;;;;;;1.48;88.59;99960.63;5074587;28;20066;-77
2020/12/03 01:17:41;;;;;;;51.55;25.05;;;;;;;1.49;88.56;99962.34;5080381;28;20470;-79
2020/12/03 01:20:09;;;;;;;44.00;22.70;;;;;;;1.57;87.78;99950.03;5090292;28;20048;-77
2020/12/03 01:22:37;;;;;;;47.90;22.98;;;;;;;1.62;87.06;99944.72;5094929;28;20048;-80
2020/12/03 01:25:05;;;;;;;47.88;23.95;;;;;;;1.59;87.02;99943.00;5084538;28;20099;-79
2020/12/03 01:27:32;;;;;;;48.97;24.00;;;;;;;1.58;87.80;99936.06;5093024;28;20048;-79
2020/12/03 01:29:58;;;;;;;45.55;22.58;;;;;;;1.54;88.11;99925.75;5083470;28;20498;-77
2020/12/03 01:32:25;;;;;;;48.38;23.98;;;;;;;1.57;87.51;99929.16;5081695;28;20048;-80
2020/12/03 01:34:51;;;;;;;49.42;24.52;;;;;;;1.56;88.05;99927.44;5089516;28;20048;-78
2020/12/03 01:37:17;;;;;;;51.15;24.88;;;;;;;1.64;88.37;99914.25;5077210;28;20086;-76
2020/12/03 01:39:45;;;;;;;50.90;23.80;;;;;;;1.64;87.98;99920.31;5082006;28;20159;-77
2020/12/03 01:42:13;;;;;;;52.40;25.00;;;;;;;1.60;88.24;99918.66;5079994;28;20052;-77
2020/12/03 01:44:46;;;;;;;46.78;23.40;;;;;;;1.57;88.54;99910.91;5085548;28;20052;-76
2020/12/03 01:47:33;;;;;;;45.72;23.63;;;;;;;1.59;88.11;99898.66;5076450;28;20049;-78
2020/12/03 01:49:59;;;;;;;49.90;24.27;;;;;;;1.61;87.91;99901.25;5075492;28;20048;-78
2020/12/03 01:52:26;;;;;;;49.17;24.10;;;;;;;1.56;88.17;99896.13;5091567;28;20077;-76
2020/12/03 01:54:53;;;;;;;49.83;24.38;;;;;;;1.55;88.10;99886.56;5070809;28;20052;-78
2020/12/03 01:57:48;;;;;;;53.35;25.95;;;;;;;1.51;88.34;99895.34;5086535;28;20056;-78
2020/12/03 02:00:17;;;;;;;53.17;24.92;;;;;;;1.50;88.13;99896.22;5083835;28;20052;-78
2020/12/03 02:02:49;;;;;;;50.40;24.33;;;;;;;1.47;88.09;99883.22;5076750;28;20071;-78
2020/12/03 02:05:19;;;;;;;53.03;25.38;;;;;;;1.42;88.44;99874.63;5084210;28;20479;-78
2020/12/03 02:07:47;;;;;;;47.13;23.20;;;;;;;1.47;88.50;99871.94;5092443;28;20063;-77
2020/12/03 02:10:17;;;;;;;53.67;25.50;;;;;;;1.47;88.34;99864.97;5087740;28;20052;-78
2020/12/03 02:12:44;;;;;;;53.28;23.92;;;;;;;1.48;88.37;99852.78;5102308;28;20078;-76
2020/12/03 02:15:12;;;;;;;52.40;24.38;;;;;;;1.51;88.55;99850.13;5088241;28;20477;-78
2020/12/03 02:17:39;;;;;;;48.53;24.60;;;;;;;1.56;88.38;99848.28;5079018;28;20071;-77
2020/12/03 02:20:10;;;;;;;51.10;24.48;;;;;;;1.61;88.04;99846.44;5076743;28;20037;-77
2020/12/03 02:22:37;;;;;;;51.05;24.25;;;;;;;1.64;88.06;99843.78;5093962;28;20056;-77
2020/12/03 02:25:04;;;;;;;50.42;24.00;;;;;;;1.67;87.78;99838.50;5089578;28;20060;-77
2020/12/03 02:27:31;;;;;;;49.95;23.90;;;;;;;1.68;88.08;99824.56;5092516;28;20078;-79
2020/12/03 02:29:57;;;;;;;46.00;24.02;;;;;;;1.69;88.34;99816.69;5082507;28;20068;-78
2020/12/03 02:32:24;;;;;;;50.20;25.30;;;;;;;1.69;88.22;99813.22;5086334;28;20048;-78
2020/12/03 02:34:50;;;;;;;52.67;24.65;;;;;;;1.68;87.84;99820.19;5102378;28;20040;-78
2020/12/03 02:37:17;;;;;;;50.03;24.25;;;;;;;1.76;88.29;99815.66;5093106;28;20047;-77
2020/12/03 02:39:44;;;;;;;51.38;24.35;;;;;;;1.79;87.56;99819.13;5090616;28;20101;-78
2020/12/03 02:42:13;;;;;;;46.47;22.77;;;;;;;1.81;87.53;99819.94;5095808;28;20390;-79
2020/12/03 02:44:41;;;;;;;47.42;23.50;;;;;;;1.75;87.11;99818.31;5084138;28;20478;-79
2020/12/03 02:47:09;;;;;;;44.80;22.50;;;;;;;1.70;87.05;99814.97;5087048;28;20059;-78
2020/12/03 02:49:40;;;;;;;48.78;22.88;;;;;;;1.62;87.24;99812.47;5089787;28;20671;-76
2020/12/03 02:52:18;;;;;;;44.85;21.83;;;;;;;1.58;87.65;99821.25;5089077;28;20471;-76
2020/12/03 02:54:45;;;;;;;44.70;21.58;;;;;;;1.51;87.36;99817.06;5085665;28;20372;-78
2020/12/03 02:57:11;;;;;;;46.75;22.50;;;;;;;1.52;87.89;99813.56;5085662;28;20079;-79
2020/12/03 02:59:38;;;;;;;46.67;22.50;;;;;;;1.56;88.53;99816.97;5089591;28;20096;-85
2020/12/03 03:02:05;;;;;;;45.85;22.42;;;;;;;1.54;88.26;99800.50;5086640;28;20047;-79
2020/12/03 03:04:32;;;;;;;45.25;22.33;;;;;;;1.56;87.98;99804.78;5079086;28;20059;-79
2020/12/03 03:06:59;;;;;;;44.45;20.90;;;;;;;1.59;88.17;99807.31;5086823;28;20139;-77
2020/12/03 03:09:26;;;;;;;42.17;20.75;;;;;;;1.58;87.33;99805.59;5085605;28;20047;-78
2020/12/03 03:11:53;;;;;;;45.20;21.83;;;;;;;1.52;88.08;99795.31;5089757;28;20770;-78
2020/12/03 03:14:19;;;;;;;42.42;21.08;;;;;;;1.48;87.86;99793.63;5089603;28;20143;-78
2020/12/03 03:16:47;;;;;;;42.42;20.50;;;;;;;1.48;88.16;99785.81;5091282;28;20054;-78
2020/12/03 03:19:16;;;;;;;44.80;20.80;;;;;;;1.55;88.67;99789.16;5080458;28;20043;-77
2020/12/03 03:21:43;;;;;;;40.53;19.85;;;;;;;1.62;87.89;99778.56;5083033;28;20052;-79
2020/12/03 03:24:10;;;;;;;38.63;20.10;;;;;;;1.65;87.08;99782.84;5091290;28;20105;-78
2020/12/03 03:26:37;;;;;;;40.40;20.40;;;;;;;1.71;87.02;99791.44;5083004;28;20044;-78
2020/12/03 03:29:05;;;;;;;39.92;20.45;;;;;;;1.64;87.02;99776.78;5091993;28;20044;-78
2020/12/03 03:31:33;;;;;;;41.15;21.05;;;;;;;1.65;86.89;99786.34;5086412;28;20044;-78
2020/12/03 03:34:00;;;;;;;39.60;20.08;;;;;;;1.67;87.31;99779.34;5080479;28;20051;-78
2020/12/03 03:36:26;;;;;;;38.38;19.98;;;;;;;1.70;86.61;99784.50;5080230;28;20054;-76
2020/12/03 03:38:53;;;;;;;39.60;20.52;;;;;;;1.64;87.32;99776.78;5087251;28;20048;-81
2020/12/03 03:41:19;;;;;;;41.17;20.42;;;;;;;1.63;87.27;99776.81;5088832;28;20068;-80
2020/12/03 03:43:46;;;;;;;39.70;20.02;;;;;;;1.58;87.59;99774.28;5093764;28;20055;-75
2020/12/03 03:46:13;;;;;;;39.63;20.02;;;;;;;1.59;87.37;99769.94;5087089;28;20511;-78
2020/12/03 03:48:39;;;;;;;39.60;19.40;;;;;;;1.58;87.94;99770.81;5090006;28;20059;-78
2020/12/03 03:51:06;;;;;;;40.83;20.27;;;;;;;1.63;87.62;99771.59;5085714;28;20044;-78
2020/12/03 03:53:33;;;;;;;37.78;19.08;;;;;;;1.63;87.30;99774.19;5089072;28;20056;-76
2020/12/03 03:56:00;;;;;;;44.15;20.42;;;;;;;1.67;87.36;99776.72;5084303;28;20044;-78
2020/12/03 03:58:27;;;;;;;43.15;20.83;;;;;;;1.61;87.24;99774.22;5084318;28;20076;-77
2020/12/03 04:00:54;;;;;;;45.78;22.65;;;;;;;1.59;87.15;99770.78;5095599;28;20048;-78
2020/12/03 04:03:21;;;;;;;40.35;20.83;;;;;;;1.55;87.95;99763.94;5084130;28;20058;-78
2020/12/03 04:05:52;;;;;;;45.60;21.35;;;;;;;1.56;88.07;99765.66;5101932;28;20128;-80
2020/12/03 04:08:19;;;;;;;45.35;21.55;;;;;;;1.55;88.20;99758.72;5095076;28;20047;-79
2020/12/03 04:10:50;;;;;;;43.20;20.10;;;;;;;1.50;88.36;99760.56;5095279;28;20045;-79
2020/12/03 04:13:17;;;;;;;;;;;;;;;1.53;88.43;99767.47;5094270;28;20050;-77
2020/12/03 04:15:45;;;;;;;40.97;19.13;;;;;;;1.47;87.99;99765.81;5081074;28;19920;-78
2020/12/03 04:18:11;;;;;;;42.08;20.10;;;;;;;1.47;88.15;99771.03;5082791;28;20055;-78
2020/12/03 04:20:38;;;;;;;46.83;22.20;;;;;;;1.48;88.30;99764.94;5090029;28;20058;-76
2020/12/03 04:23:05;;;;;;;44.15;21.40;;;;;;;1.47;88.89;99762.34;5094686;28;20051;-77
2020/12/03 04:25:32;;;;;;;44.30;21.73;;;;;;;1.43;88.81;99761.56;5110038;28;20098;-77
2020/12/03 04:27:58;;;;;;;45.85;21.50;;;;;;;1.47;88.90;99765.81;5103338;28;20047;-78
2020/12/03 04:30:25;;;;;;;43.08;21.33;;;;;;;1.49;88.63;99758.81;5098076;28;20124;-78
2020/12/03 04:32:52;;;;;;;46.30;22.63;;;;;;;1.50;88.74;99757.94;5093849;28;20126;-77
2020/12/03 04:35:19;;;;;;;42.65;20.75;;;;;;;1.45;88.58;99732.81;5089030;28;20045;-77
2020/12/03 04:37:47;;;;;;;45.90;21.38;;;;;;;1.51;88.97;99751.84;5094516;28;20411;-77
2020/12/03 04:40:25;;;;;;;44.22;21.92;;;;;;;1.49;88.29;99745.78;5095835;28;20062;-79
2020/12/03 04:42:52;;;;;;;46.60;21.70;;;;;;;1.48;88.31;99743.19;5101500;28;20043;-78
2020/12/03 04:45:38;;;;;;;46.83;21.33;;;;;;;1.52;88.75;99737.91;5087432;28;20055;-80
2020/12/03 04:48:27;;;;;;;51.13;23.00;;;;;;;1.55;88.70;99743.06;5089037;28;20052;-77
2020/12/03 04:51:12;;;;;;;47.42;21.88;;;;;;;1.58;88.48;99742.09;5076448;28;20408;-77
2020/12/03 04:53:54;;;;;;;47.85;22.42;;;;;;;1.53;88.35;99734.41;5091668;28;20074;-79
2020/12/03 04:56:33;;;;;;;51.63;23.23;;;;;;;1.50;88.71;99733.59;5095097;28;20127;-79
2020/12/03 04:59:11;;;;;;;53.15;23.42;;;;;;;1.50;88.89;99725.78;5098300;28;20062;-80
2020/12/03 05:01:53;;;;;;;51.15;22.90;;;;;;;1.55;88.80;99727.41;5101652;28;20040;-79
2020/12/03 05:04:30;;;;;;;46.88;23.05;;;;;;;1.59;88.63;99733.41;5091858;28;20067;-81
2020/12/03 05:07:01;;;;;;;48.42;22.33;;;;;;;1.60;88.57;99725.53;5087201;28;20124;-78
2020/12/03 05:09:28;;;;;;;46.65;22.10;;;;;;;1.66;88.82;99720.19;5097098;28;20079;-78
2020/12/03 05:11:59;;;;;;;48.80;22.30;;;;;;;1.71;88.65;99723.56;5103495;28;20056;-78
2020/12/03 05:14:43;;;;;;;49.70;22.83;;;;;;;1.76;88.45;99726.91;5092646;28;20116;-77
2020/12/03 05:17:31;;;;;;;50.22;24.20;;;;;;;1.72;87.69;99724.44;5076693;28;20044;-77
2020/12/03 05:20:03;;;;;;;50.63;22.88;;;;;;;1.68;88.14;99728.84;5084184;28;20052;-77
2020/12/03 05:22:29;;;;;;;48.22;23.20;;;;;;;1.64;87.97;99724.59;5089884;28;20479;-77
2020/12/03 05:24:56;;;;;;;48.63;22.88;;;;;;;1.60;87.65;99716.84;5078438;28;20060;-80
2020/12/03 05:27:33;;;;;;;50.75;22.98;;;;;;;1.62;88.32;99718.53;5102690;28;20131;-78
2020/12/03 05:30:04;;;;;;;48.97;22.58;;;;;;;1.64;88.34;99711.53;5081503;28;20044;-79
2020/12/03 05:32:31;;;;;;;47.53;22.65;;;;;;;1.62;87.37;99700.28;5084086;28;20423;-78
2020/12/03 05:34:58;;;;;;;49.45;22.25;;;;;;;1.65;87.88;99702.81;5086840;28;20441;-78
2020/12/03 05:37:27;;;;;;;47.80;22.38;;;;;;;1.65;87.29;99700.22;5075481;28;20074;-78
2020/12/03 05:39:58;;;;;;;52.95;24.17;;;;;;;1.65;87.98;99688.91;5099290;28;20050;-78
2020/12/03 05:42:28;;;;;;;;;;;;;;;1.63;88.11;99681.09;5096701;28;20050;-78
2020/12/03 05:45:00;;;;;;;45.15;20.83;;;;;;;1.63;87.82;99682.84;5091240;28;19972;-77
2020/12/03 05:47:30;;;;;;;45.92;22.15;;;;;;;1.65;88.06;99681.94;5096209;28;20134;-76
2020/12/03 05:50:04;;;;;;;46.78;20.63;;;;;;;1.65;87.62;99686.31;5097813;28;20111;-76
2020/12/03 05:52:31;;;;;;;45.30;21.42;;;;;;;1.67;87.71;99684.53;5098787;28;20059;-80
2020/12/03 05:55:01;;;;;;;43.95;21.27;;;;;;;1.65;87.01;99681.94;5112030;28;20048;-78
2020/12/03 05:57:34;;;;;;;46.43;21.33;;;;;;;1.58;87.47;99680.34;5105081;28;20082;-81
2020/12/03 06:00:13;;;;;;;43.17;21.00;;;;;;;1.64;87.81;99681.97;5113534;28;20040;-78
2020/12/03 06:03:07;;;;;;;46.92;21.58;;;;;;;1.62;87.88;99673.31;5100353;28;20052;-81
2020/12/03 06:05:45;;;;;;;44.47;21.70;;;;;;;1.52;87.69;99667.44;5089200;28;20064;-77
2020/12/03 06:08:54;;;;;;;43.58;21.92;;;;;;;1.58;88.44;99669.91;5089165;28;20048;-78
2020/12/03 06:11:37;;;;;;;45.65;20.45;;;;;;;1.61;88.33;99675.06;5101608;28;20050;-77
2020/12/03 06:14:14;;;;;;;48.20;21.33;;;;;;;1.66;87.96;99669.75;5095770;28;20048;-78
2020/12/03 06:16:53;;;;;;;45.88;22.20;;;;;;;1.64;88.41;99666.31;5103714;28;20438;-78
2020/12/03 06:19:42;;;;;;;45.88;21.52;;;;;;;1.62;88.36;99660.25;5099287;28;20040;-78
2020/12/03 06:22:30;;;;;;;47.75;21.75;;;;;;;1.60;88.09;99654.22;5094803;28;20427;-76
2020/12/03 06:25:22;;;;;;;49.33;22.02;;;;;;;1.59;88.92;99650.75;5090376;28;20127;-76
2020/12/03 06:28:22;;;;;;;41.70;20.95;;;;;;;1.64;89.04;99651.50;5073313;28;20059;-76
2020/12/03 06:31:00;;;;;;;45.92;21.58;;;;;;;1.64;89.13;99648.91;5089789;28;20050;-77
2020/12/03 06:33:31;;;;;;;43.40;21.75;;;;;;;1.67;88.90;99651.44;5080832;28;20055;-79
2020/12/03 06:36:03;;;;;;;43.80;21.00;;;;;;;1.69;89.45;99646.19;5074766;28;20055;-77
2020/12/03 06:38:51;;;;;;;43.75;22.02;;;;;;;1.73;88.95;99637.41;5081443;28;20060;-78
2020/12/03 06:41:53;;;;;;;45.40;21.73;;;;;;;1.69;88.54;99647.06;5083344;28;20066;-77
2020/12/03 06:44:42;;;;;;;43.45;20.70;;;;;;;1.69;88.59;99635.75;5089550;28;20114;-77
2020/12/03 06:47:15;;;;;;;42.83;20.88;;;;;;;1.70;88.52;99637.47;5082668;28;20790;-79
2020/12/03 06:50:19;;;;;;;41.38;21.63;;;;;;;1.72;89.66;99636.56;5089315;28;20265;-78
2020/12/03 06:53:23;;;;;;;43.63;22.15;;;;;;;1.73;89.38;99633.03;5088354;28;20048;-78
2020/12/03 06:56:15;;;;;;;42.60;20.75;;;;;;;1.75;88.84;99630.38;5085232;28;20052;-77
2020/12/03 06:59:08;;;;;;;47.88;22.08;;;;;;;1.78;89.00;99627.69;5087475;28;20435;-76
2020/12/03 07:02:05;;;;;;;42.53;21.38;;;;;;;1.74;88.11;99628.66;5080493;28;20048;-77
2020/12/03 07:05:10;;;;;;;44.97;21.33;;;;;;;1.72;89.17;99620.03;5083677;28;20460;-77
2020/12/03 07:08:14;;;;;;;40.08;20.38;;;;;;;1.72;89.60;99615.69;5082985;28;20052;-80
2020/12/03 07:10:43;;;;;;;40.22;21.08;;;;;;;1.73;89.45;99606.09;5082130;28;20558;-80
2020/12/03 07:13:20;;;;;;;41.38;21.33;;;;;;;1.74;89.45;99613.84;5086726;28;20059;-78
2020/12/03 07:16:18;;;;;;;39.28;20.92;;;;;;;1.81;89.37;99611.13;5092094;28;20048;-81
2020/12/03 07:19:06;;;;;;;43.10;20.98;;;;;;;1.81;88.88;99600.66;5099359;28;20059;-81
2020/12/03 07:22:07;;;;;;;40.05;19.88;;;;;;;1.82;89.34;99591.94;5085846;28;20044;-78
2020/12/03 07:24:36;;;;;;;40.75;20.65;;;;;;;1.81;88.92;99601.53;5083094;28;20127;-81
2020/12/03 07:27:09;;;;;;;38.20;20.13;;;;;;;1.83;88.68;99601.50;5087304;28;20136;-79
2020/12/03 07:29:35;;;;;;;38.25;20.55;;;;;;;1.83;89.03;99596.28;5085246;28;20100;-78
2020/12/03 07:32:04;;;;;;;39.47;20.80;;;;;;;1.83;89.18;99591.91;5088459;28;20530;-81
2020/12/03 07:34:39;;;;;;;44.97;23.00;;;;;;;1.79;89.32;99592.88;5093643;28;20051;-78
2020/12/03 07:37:17;;;;;;;40.65;21.10;;;;;;;1.77;89.37;99585.06;5073718;28;20044;-76
2020/12/03 07:39:50;;;;;;;37.75;21.38;;;;;;;1.77;88.89;99581.59;5085621;28;20054;-78
2020/12/03 07:42:20;;;;;;;39.58;21.92;;;;;;;1.75;88.84;99575.56;5079004;28;20052;-76
2020/12/03 07:44:50;;;;;;;42.80;21.65;;;;;;;1.81;89.05;99577.19;5081429;28;20055;-79
2020/12/03 07:47:25;;;;;;;42.33;21.70;;;;;;;1.82;89.57;99571.06;5084396;28;20052;-78
2020/12/03 07:49:53;;;;;;;41.88;22.02;;;;;;;1.81;88.96;99566.75;5084857;28;20067;-78
2020/12/03 07:52:35;;;;;;;42.83;23.33;;;;;;;1.73;89.10;99559.13;5083394;28;20056;-78
2020/12/03 07:55:20;;;;;;;41.55;22.60;;;;;;;1.78;89.40;99552.00;5081267;28;20070;-78
2020/12/03 07:57:52;;;;;;;45.72;22.60;;;;;;;1.75;89.13;99539.88;5075111;28;20500;-79
2020/12/03 08:00:26;;;;;;;41.85;22.27;;;;;;;1.75;89.76;99534.66;5084707;28;20148;-77
2020/12/03 08:03:00;;;;;;;44.17;22.95;;;;;;;1.75;89.55;99526.84;5077535;28;20070;-77
2020/12/03 08:05:39;;;;;;;45.08;23.60;;;;;;;1.73;89.36;99519.97;5081373;28;20048;-78
2020/12/03 08:08:33;;;;;;;47.40;23.70;;;;;;;1.79;90.01;99511.09;5097823;28;20031;-77
2020/12/03 08:10:59;;;;;;;45.03;23.75;;;;;;;1.84;89.64;99501.41;5088068;28;20403;-77
2020/12/03 08:13:39;;;;;;;45.85;24.20;;;;;;;1.83;89.65;99497.94;5079564;28;20076;-78
2020/12/03 08:16:32;;;;;;;45.97;24.15;;;;;;;1.89;89.20;99502.16;5081103;28;20047;-78
2020/12/03 08:19:12;;;;;;;46.90;24.88;;;;;;;1.95;90.02;99502.84;5085618;28;20048;-77
2020/12/03 08:21:41;;;;;;;44.10;23.90;;;;;;;2.00;89.38;99505.34;5076078;28;20049;-78
2020/12/03 08:24:32;;;;;;;45.30;24.65;;;;;;;2.01;89.87;99496.59;5080796;28;20545;-78
2020/12/03 08:27:01;;;;;;;48.95;24.90;;;;;;;1.97;88.84;99501.03;5082010;28;20059;-76
2020/12/03 08:29:37;;;;;;;47.92;24.80;;;;;;;2.01;89.44;99494.00;5076766;28;20044;-78
2020/12/03 08:32:04;;;;;;;47.78;25.30;;;;;;;2.01;88.86;99491.38;5086014;28;20094;-79
2020/12/03 08:34:34;;;;;;;50.17;26.88;;;;;;;2.03;89.73;99493.06;5075042;28;20160;-77
2020/12/03 08:37:08;;;;;;;48.75;27.20;;;;;;;2.07;89.84;99491.19;5082475;28;20344;-81
2020/12/03 08:39:36;;;;;;;47.97;24.85;;;;;;;2.08;89.66;99478.09;5083127;28;20954;-76
2020/12/03 08:42:06;;;;;;;46.20;24.42;;;;;;;2.12;89.64;99478.88;5081812;28;20491;-76
2020/12/03 08:44:34;;;;;;;47.50;25.25;;;;;;;2.13;89.11;99479.75;5085643;28;20064;-79
2020/12/03 08:47:10;;;;;;;42.28;24.42;;;;;;;2.14;88.99;99477.09;5076998;28;20068;-81
2020/12/03 08:49:45;;;;;;;46.47;25.58;;;;;;;2.20;89.01;99482.16;5080390;28;20060;-78
2020/12/03 08:52:18;;;;;;;45.10;25.60;;;;;;;2.24;88.76;99475.94;5091980;28;22435;-78
2020/12/03 08:54:44;;;;;;;45.40;25.00;;;;;;;2.23;87.97;99471.59;5089105;28;20047;-79
2020/12/03 08:57:13;;;;;;;47.70;25.38;;;;;;;2.28;88.33;99464.50;5088518;28;20050;-77
2020/12/03 08:59:47;;;;;;;42.13;22.80;;;;;;;2.30;87.66;99467.94;5087931;28;20059;-79
2020/12/03 09:02:19;;;;;;;41.60;23.20;;;;;;;2.29;87.71;99466.22;5079505;28;20056;-77
2020/12/03 09:04:51;;;;;;;46.63;24.88;;;;;;;2.33;87.68;99460.00;5087313;28;20075;-78
2020/12/03 09:07:21;;;;;;;43.03;24.35;;;;;;;2.39;88.03;99466.78;5086859;28;20483;-79
2020/12/03 09:09:48;;;;;;;47.13;25.65;;;;;;;2.38;87.80;99462.47;5081699;28;20059;-77
2020/12/03 09:12:20;;;;;;;42.28;24.33;;;;;;;2.37;87.64;99464.22;5080931;28;20070;-78
2020/12/03 09:14:49;;;;;;;49.78;26.90;;;;;;;2.39;87.99;99465.03;5085275;28;20056;-78
2020/12/03 09:17:19;;;;;;;45.50;25.92;;;;;;;2.48;87.94;99461.31;5080874;28;20087;-77
2020/12/03 09:19:46;;;;;;;48.00;26.10;;;;;;;2.49;87.33;99455.19;5084356;28;20450;-78
2020/12/03 09:22:16;;;;;;;45.38;25.00;;;;;;;2.51;87.19;99465.63;5095746;28;20044;-78
2020/12/03 09:24:48;;;;;;;44.70;24.38;;;;;;;2.45;87.06;99454.44;5098737;28;20053;-82
2020/12/03 09:27:16;;;;;;;51.13;26.40;;;;;;;2.46;86.52;99453.53;5104729;28;20032;-77
2020/12/03 09:29:53;;;;;;;47.10;25.60;;;;;;;2.44;87.25;99442.25;5110921;28;20040;-81
2020/12/03 09:32:24;;;;;;;45.75;24.65;;;;;;;2.49;86.40;99443.91;5100975;28;20123;-76
2020/12/03 09:34:55;;;;;;;55.50;25.98;;;;;;;2.49;86.73;99436.91;5086803;28;20048;-77
2020/12/03 09:37:22;;;;;;;43.60;23.73;;;;;;;2.46;86.40;99432.63;5086558;28;20059;-78
2020/12/03 09:39:50;;;;;;;43.13;24.88;;;;;;;2.51;86.20;99429.88;5088502;28;20624;-78
2020/12/03 09:42:18;;;;;;;44.28;25.65;;;;;;;2.57;86.28;99436.66;5102028;28;20036;-81
2020/12/03 09:44:49;;;;;;;48.22;25.58;;;;;;;2.60;86.10;99429.59;5100341;28;20108;-77
2020/12/03 09:47:20;;;;;;;48.05;26.40;;;;;;;2.64;85.38;99430.38;5107971;28;20032;-77
2020/12/03 09:49:47;;;;;;;46.55;25.20;;;;;;;2.66;85.53;99431.19;5099561;28;20042;-77
2020/12/03 09:52:15;;;;;;;61.92;26.85;;;;;;;2.64;85.51;99420.78;5085791;28;20040;-75
2020/12/03 09:54:43;;;;;;;43.67;24.88;;;;;;;2.73;85.21;99410.03;5098318;28;20075;-77
2020/12/03 09:57:12;;;;;;;43.55;24.50;;;;;;;2.76;84.85;99420.38;5094763;28;20068;-76
2020/12/03 09:59:39;;;;;;;44.38;24.23;;;;;;;2.75;85.22;99413.44;5087424;28;20036;-77
2020/12/03 10:02:14;;;;;;;43.65;24.40;;;;;;;2.79;84.86;99414.22;5080171;28;20094;-77
2020/12/03 10:04:53;;;;;;;46.95;25.38;;;;;;;2.79;85.03;99402.00;5080812;28;20411;-77
2020/12/03 10:07:50;;;;;;;41.65;23.75;;;;;;;2.84;84.90;99404.44;5076595;28;20076;-76
2020/12/03 10:10:41;;;;;;;41.00;24.13;;;;;;;2.83;84.50;99392.31;5081844;28;20047;-77
2020/12/03 10:13:45;;;;;;;42.45;23.58;;;;;;;2.80;84.13;99382.81;5084926;28;20050;-77
2020/12/03 10:16:20;;;;;;;45.20;23.73;;;;;;;2.80;84.11;99368.88;5094239;28;20052;-76
2020/12/03 10:18:50;;;;;;;38.50;23.23;;;;;;;2.79;84.38;99367.16;5090290;28;20040;-76
2020/12/03 10:21:21;;;;;;;43.70;22.45;;;;;;;2.85;84.17;99371.31;5086949;28;20063;-77
2020/12/03 10:24:00;;;;;;;40.95;22.52;;;;;;;2.87;83.82;99365.13;5082915;28;20440;-77
2020/12/03 10:26:58;;;;;;;39.28;21.90;;;;;;;2.99;83.43;99358.69;5098709;28;20059;-77
2020/12/03 10:29:36;;;;;;;38.67;20.83;;;;;;;3.10;83.61;99360.03;5087078;28;20062;-76
2020/12/03 10:32:15;;;;;;;41.25;21.70;;;;;;;3.12;83.50;99345.13;5095944;28;20355;-79
2020/12/03 10:34:45;;;;;;;36.50;21.60;;;;;;;3.24;82.95;99348.25;5089422;28;20051;-77
2020/12/03 10:37:32;;;;;;;37.20;21.08;;;;;;;3.27;82.42;99358.59;5085447;28;20911;-76
2020/12/03 10:40:25;;;;;;;36.38;20.55;;;;;;;3.27;82.37;99343.75;5079778;28;20060;-77
2020/12/03 10:43:07;;;;;;;34.75;20.58;;;;;;;3.30;82.71;99341.06;5077364;28;20051;-77
2020/12/03 10:45:39;;;;;;;39.90;21.30;;;;;;;3.39;82.15;99332.00;5075644;28;20047;-76
2020/12/03 10:48:26;;;;;;;39.28;21.38;;;;;;;3.40;81.67;99320.66;5080638;28;20054;-77
2020/12/03 10:50:57;;;;;;;40.30;20.50;;;;;;;3.39;81.51;99311.94;5082371;28;20148;-77
2020/12/03 10:53:27;;;;;;;36.63;20.65;;;;;;;3.39;81.88;99303.22;5099333;28;20059;-77
2020/12/03 10:56:04;;;;;;;36.33;20.20;;;;;;;3.34;81.09;99305.16;5097401;28;20152;-77
2020/12/03 10:58:34;;;;;;;36.00;20.30;;;;;;;3.21;81.62;99296.88;5088568;28;20723;-77
2020/12/03 11:01:06;;;;;;;35.73;20.43;;;;;;;3.20;81.64;99302.16;5088289;28;20044;-77
2020/12/03 11:03:36;;;;;;;35.80;20.38;;;;;;;3.17;81.26;99295.25;5101147;28;20497;-78
2020/12/03 11:06:03;;;;;;;41.53;20.67;;;;;;;3.25;81.88;99293.25;5097998;28;20052;-78
2020/12/03 11:08:37;;;;;;;38.05;21.10;;;;;;;3.30;81.77;99291.34;5086224;28;20052;-77
2020/12/03 11:11:04;;;;;;;35.35;20.65;;;;;;;3.34;81.95;99278.97;5086007;28;20051;-77
2020/12/03 11:13:31;;;;;;;38.10;21.98;;;;;;;3.35;82.06;99272.84;5083297;28;20041;-78
2020/12/03 11:16:02;;;;;;;38.95;20.92;;;;;;;3.39;82.09;99269.22;5082577;28;20479;-77
2020/12/03 11:18:38;;;;;;;37.05;19.88;;;;;;;3.42;82.03;99266.50;5081996;28;20367;-76
2020/12/03 11:21:13;;;;;;;36.30;20.15;;;;;;;3.42;81.31;99258.66;5086161;28;20040;-79
2020/12/03 11:23:56;;;;;;;33.70;21.00;;;;;;;3.42;81.57;99253.41;5090165;28;20651;-76
2020/12/03 11:26:28;;;;;;;35.35;20.52;;;;;;;3.35;80.85;99251.91;5079535;28;20056;-77
2020/12/03 11:28:54;;;;;;;36.30;20.88;;;;;;;3.36;81.64;99245.75;5080863;28;20044;-77
2020/12/03 11:31:34;;;;;;;35.38;21.60;;;;;;;3.31;81.15;99235.44;5087650;28;20056;-79
2020/12/03 11:34:03;;;;;;;40.58;22.48;;;;;;;3.39;82.26;99232.56;5083247;28;20495;-77
2020/12/03 11:36:38;;;;;;;38.55;21.23;;;;;;;3.40;81.32;99218.59;5083527;28;20067;-77
2020/12/03 11:39:08;;;;;;;38.35;22.70;;;;;;;3.47;81.02;99210.44;5086348;28;20048;-77
2020/12/03 11:49:27;;;;;;;36.50;22.35;;;;;;;3.61;80.55;99203.88;5086775;28;20050;-78
2020/12/03 11:52:16;;;;;;;41.13;22.83;;;;;;;3.68;80.42;99200.09;5074427;28;20048;-78
2020/12/03 11:54:45;;;;;;;36.58;20.80;;;;;;;3.76;79.76;99201.50;5081928;28;20056;-78
2020/12/03 11:57:15;;;;;;;42.40;23.02;;;;;;;3.76;79.74;99201.50;5080909;28;20077;-76
2020/12/03 11:59:43;;;;;;;39.25;21.85;;;;;;;3.74;79.12;99198.09;5078468;28;20732;-77